(541)-479-2230 [email protected]

City of Grants Pass

Grants Pass AirportĀ 

Current Weather Conditions Medford Airport:
MEDFORD, OR
Metar
KMFR 190553Z AUTO 00000KT 6SM BR BKN003 00/M01 A3021 RMK AO2 SLP239 T00001006 10056 20000 56002

05:53 UTC

Wind: 0° 0kt

Visibility: 6 SM

Sky: BKN 300 ft

Temp: 0 deg C / 32 deg F

Dewpoint: -1 deg C / 30.2 deg F

Pressure: 30.21 inHg

TAF
KMFR 190539Z 1906/2006 00000KT 4SM BR SCT003 BKN250 FM190800 00000KT 1SM BR BKN003 FM191000 00000KT 1/4SM FZFG BKN003 FM191300 00000KT 1/4SM FZFG OVC001 FM191800 00000KT 3SM BR BKN006 FM191900 VRB03KT P6SM SCT060 BKN250